Time;durP1;ratioP1;P1;durP2;ratioP2;P2;SDS_P1;SDS_P2;PMS_P1;PMS_P2;Temp;Humidity;BMP_temperature;BMP_pressure;BME280_temperature;BME280_humidity;BME280_pressure;Samples;Min_cycle;Max_cycle;Signal;HPM_P1;HPM_P2
2022/03/17 00:02:23;;;;;;;116.10;67.40;;;;;;;;;;5034311;28;20457;-60
2022/03/17 00:04:49;;;;;;;112.60;67.47;;;;;;;;;;5034260;28;20482;-60
2022/03/17 00:07:15;;;;;;;67.13;59.92;;;;;;;;;;5034108;28;20254;-59
2022/03/17 00:09:41;;;;;;;111.32;66.28;;;;;;;;;;5034100;28;20730;-60
2022/03/17 00:12:08;;;;;;;98.57;63.87;;;;;;;;;;5033719;28;20348;-60
2022/03/17 00:14:34;;;;;;;111.40;68.28;;;;;;;;;;5033997;28;20921;-60
2022/03/17 00:17:00;;;;;;;128.17;71.47;;;;;;;;;;5033943;28;20173;-60
2022/03/17 00:19:26;;;;;;;124.20;67.30;;;;;;;;;;5033913;28;20412;-58
2022/03/17 00:21:52;;;;;;;101.15;63.03;;;;;;;;;;5033655;28;20808;-58
2022/03/17 00:24:18;;;;;;;140.10;70.68;;;;;;;;;;5033858;28;20643;-59
2022/03/17 00:26:44;;;;;;;128.17;68.27;;;;;;;;;;5033850;28;20177;-60
2022/03/17 00:29:11;;;;;;;115.65;68.47;;;;;;;;;;5033650;28;20823;-59
2022/03/17 00:31:38;;;;;;;134.70;71.15;;;;;;;;;;5033346;28;20711;-59
2022/03/17 00:34:07;;;;;;;118.05;67.03;;;;;;;;;;5033677;28;20260;-60
2022/03/17 00:36:34;;;;;;;130.57;71.22;;;;;;;;;;5033651;28;20180;-59
2022/03/17 00:39:00;;;;;;;103.40;65.85;;;;;;;;;;5032110;28;20204;-59
2022/03/17 00:41:26;;;;;;;122.57;66.10;;;;;;;;;;5033072;28;20215;-60
2022/03/17 00:43:52;;;;;;;109.23;66.97;;;;;;;;;;5033379;28;20180;-57
2022/03/17 00:46:20;;;;;;;82.63;63.78;;;;;;;;;;5033327;28;20472;-57
2022/03/17 00:48:46;;;;;;;76.90;60.42;;;;;;;;;;5033275;28;20210;-60
2022/03/17 00:51:12;;;;;;;124.93;70.07;;;;;;;;;;5032891;28;20267;-59
2022/03/17 00:53:37;;;;;;;123.50;70.87;;;;;;;;;;5033261;28;20826;-60
2022/03/17 00:56:04;;;;;;;131.37;70.27;;;;;;;;;;5033291;28;20946;-60
2022/03/17 00:58:30;;;;;;;133.73;70.75;;;;;;;;;;5033275;28;20418;-59
2022/03/17 01:00:56;;;;;;;126.70;68.38;;;;;;;;;;5032781;28;20762;-58
2022/03/17 01:03:22;;;;;;;131.00;69.47;;;;;;;;;;5033157;28;20602;-58
2022/03/17 01:05:48;;;;;;;139.52;72.00;;;;;;;;;;5033143;28;20701;-60
2022/03/17 01:08:14;;;;;;;133.15;69.63;;;;;;;;;;5032928;28;20204;-60
2022/03/17 01:10:42;;;;;;;135.07;67.43;;;;;;;;;;5032112;28;20682;-59
2022/03/17 01:13:08;;;;;;;136.50;71.40;;;;;;;;;;5032704;28;20493;-58
2022/03/17 01:15:34;;;;;;;136.35;73.68;;;;;;;;;;5032623;28;20290;-60
2022/03/17 01:18:02;;;;;;;129.40;70.80;;;;;;;;;;5032804;28;20623;-59
2022/03/17 01:20:29;;;;;;;136.10;72.28;;;;;;;;;;5013094;28;20530;-60
2022/03/17 01:22:55;;;;;;;126.78;67.00;;;;;;;;;;5012824;28;20212;-60
2022/03/17 01:25:21;;;;;;;123.10;66.97;;;;;;;;;;5012906;28;20177;-60
2022/03/17 01:27:47;;;;;;;125.03;71.17;;;;;;;;;;5019153;28;20451;-59
2022/03/17 01:30:13;;;;;;;124.80;70.00;;;;;;;;;;5032160;28;20957;-58
2022/03/17 01:32:39;;;;;;;123.93;69.20;;;;;;;;;;5032325;28;20490;-60
2022/03/17 01:35:07;;;;;;;128.88;70.05;;;;;;;;;;5032442;28;20173;-59
2022/03/17 01:37:33;;;;;;;124.45;68.93;;;;;;;;;;5031161;28;20176;-59
2022/03/17 01:39:59;;;;;;;127.50;71.85;;;;;;;;;;5032363;28;20183;-60
2022/03/17 01:42:25;;;;;;;116.93;66.57;;;;;;;;;;5032044;28;20191;-60
2022/03/17 01:44:51;;;;;;;118.00;66.70;;;;;;;;;;5032361;28;20403;-60
2022/03/17 01:47:26;;;;;;;124.17;68.20;;;;;;;;;;5032279;28;20944;-60
2022/03/17 01:49:57;;;;;;;127.68;66.90;;;;;;;;;;5032185;28;20435;-59
2022/03/17 01:52:23;;;;;;;138.35;69.15;;;;;;;;;;5032142;28;20231;-57
2022/03/17 01:54:50;;;;;;;145.60;70.80;;;;;;;;;;5034976;28;20177;-55
2022/03/17 01:57:16;;;;;;;137.90;69.22;;;;;;;;;;5032114;28;20187;-56
2022/03/17 01:59:42;;;;;;;144.97;71.73;;;;;;;;;;5032073;28;20180;-58
2022/03/17 02:02:08;;;;;;;143.98;69.75;;;;;;;;;;5031708;28;20514;-58
2022/03/17 02:04:35;;;;;;;143.20;73.97;;;;;;;;;;5031544;28;20192;-57
2022/03/17 02:07:05;;;;;;;143.60;68.25;;;;;;;;;;5031950;28;20543;-58
2022/03/17 02:09:32;;;;;;;145.32;71.22;;;;;;;;;;5031832;28;20283;-58
2022/03/17 02:14:55;;;;;;;133.63;66.03;;;;;;;;;;5032133;28;20186;-55
2022/03/17 02:17:22;;;;;;;124.10;66.53;;;;;;;;;;5031638;28;20218;-59
2022/03/17 02:19:48;;;;;;;110.80;66.18;;;;;;;;;;5032877;28;20228;-56
2022/03/17 02:22:15;;;;;;;117.25;65.30;;;;;;;;;;5031495;28;20210;-55
2022/03/17 02:27:30;;;;;;;133.38;69.95;;;;;;;;;;5031874;28;20215;-56
2022/03/17 02:29:56;;;;;;;136.55;70.28;;;;;;;;;;5031342;28;20173;-56
2022/03/17 02:32:22;;;;;;;149.20;71.87;;;;;;;;;;5031355;28;20310;-59
2022/03/17 02:34:48;;;;;;;147.23;71.07;;;;;;;;;;5031597;28;20400;-58
2022/03/17 02:37:15;;;;;;;152.80;69.60;;;;;;;;;;5031508;28;20439;-54
2022/03/17 02:39:42;;;;;;;148.98;68.22;;;;;;;;;;5031588;28;20501;-59
2022/03/17 02:42:10;;;;;;;149.35;68.22;;;;;;;;;;5031234;28;20211;-56
2022/03/17 02:44:36;;;;;;;132.05;63.58;;;;;;;;;;5031377;28;20210;-55
2022/03/17 02:47:02;;;;;;;137.40;64.65;;;;;;;;;;5031009;28;20176;-58
2022/03/17 02:49:28;;;;;;;139.87;65.47;;;;;;;;;;5031512;28;20222;-58
2022/03/17 02:51:54;;;;;;;139.63;66.60;;;;;;;;;;5031048;28;20872;-58
2022/03/17 02:54:20;;;;;;;142.80;65.10;;;;;;;;;;5031357;28;20229;-59
2022/03/17 02:56:46;;;;;;;119.53;62.15;;;;;;;;;;5031255;28;20407;-60
2022/03/17 02:59:12;;;;;;;149.80;67.50;;;;;;;;;;5031265;28;20182;-56
2022/03/17 03:01:38;;;;;;;153.97;68.10;;;;;;;;;;5031044;28;20514;-60
2022/03/17 03:04:04;;;;;;;149.10;67.68;;;;;;;;;;5031419;28;20418;-60
2022/03/17 03:06:30;;;;;;;150.67;67.50;;;;;;;;;;5031321;28;20690;-60
2022/03/17 03:08:56;;;;;;;151.47;68.43;;;;;;;;;;5031214;28;20957;-60
2022/03/17 03:11:22;;;;;;;137.77;63.40;;;;;;;;;;5030683;28;20450;-59
2022/03/17 03:13:48;;;;;;;140.93;70.10;;;;;;;;;;5030025;28;20484;-60
2022/03/17 03:16:14;;;;;;;148.63;68.78;;;;;;;;;;5032164;28;20410;-58
2022/03/17 03:18:40;;;;;;;151.53;68.50;;;;;;;;;;5035114;28;20640;-59
2022/03/17 03:21:07;;;;;;;146.02;68.38;;;;;;;;;;5034741;28;20424;-60
2022/03/17 03:23:33;;;;;;;151.75;68.65;;;;;;;;;;5034943;28;20816;-60
2022/03/17 03:25:59;;;;;;;154.63;69.80;;;;;;;;;;5033440;28;20185;-60
2022/03/17 03:28:25;;;;;;;153.73;69.43;;;;;;;;;;5034689;28;20200;-60
2022/03/17 03:30:52;;;;;;;151.77;68.40;;;;;;;;;;5034594;28;20617;-60
2022/03/17 03:33:17;;;;;;;152.23;66.60;;;;;;;;;;5034177;28;20749;-59
2022/03/17 03:38:28;;;;;;;155.18;68.22;;;;;;;;;;5033730;28;20972;-60
2022/03/17 03:40:54;;;;;;;148.07;68.00;;;;;;;;;;5034172;28;20208;-59
2022/03/17 03:43:20;;;;;;;149.90;70.03;;;;;;;;;;5034613;28;20441;-59
2022/03/17 03:45:46;;;;;;;147.53;68.00;;;;;;;;;;5034637;28;20411;-59
2022/03/17 03:48:12;;;;;;;130.50;65.67;;;;;;;;;;5034454;28;20459;-60
2022/03/17 03:50:38;;;;;;;122.77;64.47;;;;;;;;;;5034161;28;20497;-58
2022/03/17 03:53:04;;;;;;;127.40;65.10;;;;;;;;;;5034520;28;20814;-60
2022/03/17 03:55:30;;;;;;;127.72;65.38;;;;;;;;;;5034171;28;20180;-56
2022/03/17 03:57:58;;;;;;;145.85;69.38;;;;;;;;;;5034395;28;20320;-60
2022/03/17 04:00:33;;;;;;;134.48;72.57;;;;;;;;;;5034058;28;20276;-60
2022/03/17 04:03:00;;;;;;;133.52;66.00;;;;;;;;;;5034315;28;20712;-61
2022/03/17 04:05:29;;;;;;;119.20;64.82;;;;;;;;;;5034218;28;20181;-60
2022/03/17 04:07:56;;;;;;;138.57;71.82;;;;;;;;;;5034029;28;20192;-60
2022/03/17 04:10:23;;;;;;;152.43;79.50;;;;;;;;;;5033867;28;20165;-59
2022/03/17 04:12:48;;;;;;;149.73;72.50;;;;;;;;;;5035000;28;20238;-60
2022/03/17 04:15:14;;;;;;;136.27;70.87;;;;;;;;;;5034083;28;20254;-60
2022/03/17 04:17:41;;;;;;;156.90;74.87;;;;;;;;;;5034009;28;20469;-58
2022/03/17 04:20:08;;;;;;;112.10;66.75;;;;;;;;;;5033786;28;20406;-60
2022/03/17 04:22:34;;;;;;;150.30;75.07;;;;;;;;;;5033756;28;20625;-60
2022/03/17 04:25:00;;;;;;;147.17;72.07;;;;;;;;;;5033720;28;20196;-60
2022/03/17 04:27:25;;;;;;;157.07;74.07;;;;;;;;;;5033282;28;20427;-60
2022/03/17 04:29:51;;;;;;;148.00;71.17;;;;;;;;;;5033845;28;20439;-60
2022/03/17 04:32:17;;;;;;;141.27;72.43;;;;;;;;;;5033548;28;20424;-60
2022/03/17 04:34:43;;;;;;;142.23;72.30;;;;;;;;;;5034020;28;20173;-59
2022/03/17 04:37:09;;;;;;;141.47;73.37;;;;;;;;;;5033509;28;20408;-58
2022/03/17 04:39:35;;;;;;;139.33;71.37;;;;;;;;;;5033515;28;20416;-58
2022/03/17 04:42:01;;;;;;;134.27;69.60;;;;;;;;;;5033293;28;20441;-59
2022/03/17 04:44:27;;;;;;;124.10;68.07;;;;;;;;;;5033503;28;20606;-61
2022/03/17 04:46:53;;;;;;;126.73;67.33;;;;;;;;;;5032522;28;20427;-59
2022/03/17 04:49:19;;;;;;;121.17;68.30;;;;;;;;;;5033221;28;20860;-60
2022/03/17 04:51:45;;;;;;;125.57;69.13;;;;;;;;;;5031920;28;20498;-61
2022/03/17 04:54:11;;;;;;;117.10;67.70;;;;;;;;;;5033104;28;20419;-60
2022/03/17 04:56:37;;;;;;;102.87;65.57;;;;;;;;;;5032880;28;20798;-61
2022/03/17 04:59:03;;;;;;;113.37;71.27;;;;;;;;;;5030462;28;20427;-61
2022/03/17 05:01:29;;;;;;;115.67;68.10;;;;;;;;;;5030213;28;20484;-58
2022/03/17 05:03:55;;;;;;;121.90;71.47;;;;;;;;;;5032144;28;20516;-57
2022/03/17 05:06:21;;;;;;;125.40;69.57;;;;;;;;;;5031704;28;20430;-60
2022/03/17 05:08:46;;;;;;;123.50;68.55;;;;;;;;;;5032938;28;20814;-60
2022/03/17 05:11:16;;;;;;;124.17;69.70;;;;;;;;;;5032624;28;20674;-58
2022/03/17 05:13:46;;;;;;;127.00;67.65;;;;;;;;;;5032941;28;20495;-60
2022/03/17 05:16:13;;;;;;;124.95;68.80;;;;;;;;;;5033042;28;20184;-61
2022/03/17 05:18:39;;;;;;;118.30;66.72;;;;;;;;;;5033260;28;20191;-61
2022/03/17 05:21:06;;;;;;;123.43;66.78;;;;;;;;;;5033872;28;20627;-58
2022/03/17 05:23:33;;;;;;;133.77;69.85;;;;;;;;;;5032909;28;20191;-60
2022/03/17 05:25:59;;;;;;;111.78;67.40;;;;;;;;;;5032950;28;20199;-58
2022/03/17 05:28:25;;;;;;;103.43;65.03;;;;;;;;;;5032956;28;20619;-59
2022/03/17 05:30:51;;;;;;;96.43;65.07;;;;;;;;;;5032523;28;20168;-59
2022/03/17 05:33:17;;;;;;;82.50;61.20;;;;;;;;;;5033039;28;20659;-61
2022/03/17 05:35:44;;;;;;;96.28;63.47;;;;;;;;;;5032432;28;20675;-60
2022/03/17 05:38:10;;;;;;;107.13;66.40;;;;;;;;;;5032216;28;20180;-61
2022/03/17 05:40:37;;;;;;;118.88;69.25;;;;;;;;;;5031634;28;20218;-61
2022/03/17 05:43:06;;;;;;;109.85;64.13;;;;;;;;;;5032392;28;20257;-61
2022/03/17 05:45:31;;;;;;;128.35;68.68;;;;;;;;;;5032085;28;20180;-61
2022/03/17 05:47:59;;;;;;;121.77;66.47;;;;;;;;;;5032171;28;20204;-61
2022/03/17 05:50:26;;;;;;;130.82;70.68;;;;;;;;;;5031907;28;20422;-61
2022/03/17 05:52:53;;;;;;;121.53;70.95;;;;;;;;;;5032034;28;20537;-59
2022/03/17 05:55:20;;;;;;;127.38;70.03;;;;;;;;;;5034072;28;20179;-58
2022/03/17 05:57:47;;;;;;;127.85;71.80;;;;;;;;;;5031984;28;20180;-60
2022/03/17 06:00:23;;;;;;;125.38;70.38;;;;;;;;;;5031443;28;20191;-59
2022/03/17 06:02:49;;;;;;;115.07;67.90;;;;;;;;;;5032092;28;20273;-60
2022/03/17 06:05:15;;;;;;;118.00;69.63;;;;;;;;;;5031903;28;20618;-59
2022/03/17 06:07:42;;;;;;;122.03;71.75;;;;;;;;;;5031827;28;20403;-57
2022/03/17 06:10:09;;;;;;;114.95;69.65;;;;;;;;;;5030624;28;20669;-57
2022/03/17 06:12:35;;;;;;;92.78;65.60;;;;;;;;;;5030643;28;20212;-57
2022/03/17 06:15:01;;;;;;;111.15;68.25;;;;;;;;;;5030028;28;20173;-56
2022/03/17 06:17:36;;;;;;;114.93;70.85;;;;;;;;;;5029642;28;20199;-60
2022/03/17 06:20:02;;;;;;;117.15;73.82;;;;;;;;;;5029845;28;20195;-60
2022/03/17 06:22:28;;;;;;;115.20;72.40;;;;;;;;;;5029601;28;20586;-61
2022/03/17 06:24:54;;;;;;;100.20;69.97;;;;;;;;;;5029306;28;20790;-60
2022/03/17 06:27:20;;;;;;;105.60;72.80;;;;;;;;;;5029511;28;20794;-60
2022/03/17 06:29:46;;;;;;;102.03;67.17;;;;;;;;;;5031543;28;20482;-61
2022/03/17 06:32:12;;;;;;;97.73;67.00;;;;;;;;;;5031679;28;20510;-58
2022/03/17 06:34:38;;;;;;;103.60;69.87;;;;;;;;;;5031542;28;20457;-59
2022/03/17 06:37:04;;;;;;;102.27;70.27;;;;;;;;;;5031534;28;20453;-60
2022/03/17 06:39:30;;;;;;;107.07;70.40;;;;;;;;;;5031499;28;20443;-61
2022/03/17 06:41:56;;;;;;;104.57;68.77;;;;;;;;;;5031127;28;20200;-61
2022/03/17 06:44:22;;;;;;;104.00;71.77;;;;;;;;;;5031420;28;20419;-59
2022/03/17 06:46:47;;;;;;;90.83;69.50;;;;;;;;;;5031369;28;20415;-61
2022/03/17 06:49:13;;;;;;;91.50;68.63;;;;;;;;;;5031340;28;20601;-61
2022/03/17 06:51:39;;;;;;;82.20;68.07;;;;;;;;;;5036909;28;20470;-61
2022/03/17 06:54:05;;;;;;;75.70;66.07;;;;;;;;;;5037946;28;20434;-61
2022/03/17 06:56:31;;;;;;;103.17;70.47;;;;;;;;;;5038079;28;20787;-60
2022/03/17 06:58:57;;;;;;;107.90;71.23;;;;;;;;;;5038001;28;20403;-57
2022/03/17 07:01:23;;;;;;;114.77;72.50;;;;;;;;;;5037513;28;20427;-61
2022/03/17 07:03:49;;;;;;;109.27;71.33;;;;;;;;;;5038100;28;20414;-56
2022/03/17 07:06:15;;;;;;;109.03;73.63;;;;;;;;;;5037904;28;20759;-61
2022/03/17 07:08:41;;;;;;;101.60;70.10;;;;;;;;;;5037758;28;20545;-60
2022/03/17 07:11:07;;;;;;;107.03;71.40;;;;;;;;;;5037538;28;20445;-61
2022/03/17 07:13:33;;;;;;;129.20;75.87;;;;;;;;;;5037928;28;20659;-61
2022/03/17 07:16:00;;;;;;;127.22;76.43;;;;;;;;;;5037897;28;20902;-60
2022/03/17 07:18:26;;;;;;;120.20;75.80;;;;;;;;;;5038111;28;20192;-61
2022/03/17 07:20:56;;;;;;;114.23;73.87;;;;;;;;;;5037517;28;20678;-60
2022/03/17 07:23:22;;;;;;;102.60;71.65;;;;;;;;;;5037830;28;20402;-61
2022/03/17 07:25:48;;;;;;;108.07;75.10;;;;;;;;;;5037727;28;20602;-59
2022/03/17 07:28:15;;;;;;;107.60;74.00;;;;;;;;;;5037642;28;20200;-60
2022/03/17 07:30:41;;;;;;;106.88;76.93;;;;;;;;;;5037175;28;20910;-60
2022/03/17 07:33:07;;;;;;;115.72;77.85;;;;;;;;;;5037580;28;20173;-60
2022/03/17 07:35:33;;;;;;;95.05;73.65;;;;;;;;;;5037598;28;20183;-61
2022/03/17 07:38:02;;;;;;;87.73;72.60;;;;;;;;;;5037606;28;20173;-61
2022/03/17 07:40:28;;;;;;;65.65;59.45;;;;;;;;;;5037246;28;20414;-61
2022/03/17 07:42:54;;;;;;;65.50;60.00;;;;;;;;;;5037515;28;20192;-61
2022/03/17 07:45:20;;;;;;;73.30;66.80;;;;;;;;;;5037414;28;20767;-60
2022/03/17 07:47:47;;;;;;;82.03;72.60;;;;;;;;;;5037308;28;20405;-61
2022/03/17 07:50:13;;;;;;;96.63;83.47;;;;;;;;;;5036696;28;20434;-61
2022/03/17 07:52:39;;;;;;;101.60;80.85;;;;;;;;;;5037555;28;20235;-61
2022/03/17 07:55:05;;;;;;;88.83;79.23;;;;;;;;;;5037519;28;20177;-61
2022/03/17 07:57:31;;;;;;;88.57;79.93;;;;;;;;;;5037434;28;20748;-60
2022/03/17 07:59:58;;;;;;;100.68;80.53;;;;;;;;;;5037707;28;20664;-60
2022/03/17 08:02:24;;;;;;;101.68;79.00;;;;;;;;;;5035054;28;20222;-61
2022/03/17 08:04:50;;;;;;;102.70;77.50;;;;;;;;;;5034509;28;20176;-61
2022/03/17 08:07:17;;;;;;;99.85;80.32;;;;;;;;;;5034388;28;20559;-60
2022/03/17 08:09:43;;;;;;;103.45;81.47;;;;;;;;;;5034626;28;20216;-61
2022/03/17 08:12:09;;;;;;;95.55;81.35;;;;;;;;;;5033826;28;20212;-60
2022/03/17 08:14:35;;;;;;;89.00;78.07;;;;;;;;;;5034164;28;20192;-61
2022/03/17 08:17:01;;;;;;;95.33;81.03;;;;;;;;;;5034290;28;20641;-59
2022/03/17 08:19:28;;;;;;;112.05;80.80;;;;;;;;;;5034126;28;20883;-61
2022/03/17 08:21:56;;;;;;;106.95;84.90;;;;;;;;;;5033977;28;20553;-61
2022/03/17 08:24:22;;;;;;;87.90;79.22;;;;;;;;;;5034103;28;20203;-59
2022/03/17 08:26:48;;;;;;;106.65;86.93;;;;;;;;;;5033863;28;20180;-61
2022/03/17 08:29:14;;;;;;;100.63;88.63;;;;;;;;;;5033823;28;20204;-61
2022/03/17 08:31:40;;;;;;;95.32;85.32;;;;;;;;;;5033857;28;20431;-61
2022/03/17 08:34:06;;;;;;;94.30;84.80;;;;;;;;;;5033847;28;20595;-59
2022/03/17 08:36:32;;;;;;;93.60;84.50;;;;;;;;;;5033986;28;20209;-60
2022/03/17 08:38:58;;;;;;;97.13;87.47;;;;;;;;;;5033765;28;20760;-59
2022/03/17 08:41:24;;;;;;;98.63;88.73;;;;;;;;;;5033379;28;20493;-61
2022/03/17 08:43:51;;;;;;;102.40;92.27;;;;;;;;;;5035720;28;20477;-58
2022/03/17 08:51:47;;;;;;;93.35;83.45;;;;;;;;;;5033277;28;20203;-60
2022/03/17 08:54:14;;;;;;;100.78;84.72;;;;;;;;;;5033787;28;20181;-61
2022/03/17 08:56:40;;;;;;;107.47;85.88;;;;;;;;;;5033353;28;20172;-61
2022/03/17 08:59:06;;;;;;;128.43;92.70;;;;;;;;;;5033215;28;20187;-60
2022/03/17 09:01:32;;;;;;;109.25;93.80;;;;;;;;;;5032133;28;20448;-61
2022/03/17 09:04:00;;;;;;;131.67;90.87;;;;;;;;;;5033022;28;20567;-57
2022/03/17 09:06:26;;;;;;;100.35;89.55;;;;;;;;;;5032938;28;20430;-57
2022/03/17 09:08:52;;;;;;;101.47;89.87;;;;;;;;;;5031991;28;20576;-59
2022/03/17 09:11:18;;;;;;;98.20;87.40;;;;;;;;;;5031940;28;20446;-58
2022/03/17 09:13:43;;;;;;;123.07;91.40;;;;;;;;;;5031659;28;20177;-58
2022/03/17 09:16:09;;;;;;;135.17;92.80;;;;;;;;;;5032800;28;20395;-60
2022/03/17 09:18:35;;;;;;;134.60;92.97;;;;;;;;;;5033102;28;20408;-58
2022/03/17 09:21:01;;;;;;;136.93;96.57;;;;;;;;;;5033377;28;20893;-61
2022/03/17 09:23:31;;;;;;;134.33;99.50;;;;;;;;;;5032588;28;20855;-59
2022/03/17 09:25:57;;;;;;;138.63;97.82;;;;;;;;;;5030927;28;20923;-58
2022/03/17 09:28:23;;;;;;;143.00;98.97;;;;;;;;;;5032793;28;20204;-59
2022/03/17 09:30:52;;;;;;;119.37;94.80;;;;;;;;;;5032557;28;20176;-59
2022/03/17 09:33:18;;;;;;;141.63;100.18;;;;;;;;;;5032369;28;20415;-58
2022/03/17 09:35:44;;;;;;;132.33;99.00;;;;;;;;;;5034664;28;20177;-60
2022/03/17 09:38:10;;;;;;;133.43;97.85;;;;;;;;;;5033683;28;20411;-61
2022/03/17 09:40:38;;;;;;;126.68;108.47;;;;;;;;;;5029254;28;20197;-61
2022/03/17 09:43:22;;;;;;;136.30;105.72;;;;;;;;;;5030293;28;20192;-59
2022/03/17 09:45:51;;;;;;;127.43;109.03;;;;;;;;;;5029795;28;20195;-61
2022/03/17 09:48:17;;;;;;;131.77;103.00;;;;;;;;;;5028616;28;20679;-59
2022/03/17 09:50:44;;;;;;;134.10;116.05;;;;;;;;;;5030789;28;20212;-61
2022/03/17 09:53:10;;;;;;;125.60;108.28;;;;;;;;;;5030917;28;20187;-55
2022/03/17 09:55:37;;;;;;;139.68;110.97;;;;;;;;;;5032472;28;20172;-60
2022/03/17 09:58:06;;;;;;;137.23;113.25;;;;;;;;;;5034483;28;20683;-60
2022/03/17 10:00:47;;;;;;;128.80;115.05;;;;;;;;;;5031283;28;20188;-61
2022/03/17 10:03:27;;;;;;;126.88;112.38;;;;;;;;;;5034233;28;20192;-59
2022/03/17 10:05:54;;;;;;;138.68;113.35;;;;;;;;;;5031035;28;20242;-59
2022/03/17 10:08:23;;;;;;;147.63;117.55;;;;;;;;;;5029042;28;20320;-56
2022/03/17 10:10:49;;;;;;;149.57;115.95;;;;;;;;;;5031097;28;20249;-60
2022/03/17 10:13:19;;;;;;;187.52;164.35;;;;;;;;;;5051324;22;20196;-63
2022/03/17 10:15:47;;;;;;;156.60;114.68;;;;;;;;;;5006277;28;20178;-62
2022/03/17 10:18:23;;;;;;;157.15;119.68;;;;;;;;;;5011141;28;20742;-61
2022/03/17 10:21:10;;;;;;;133.75;119.18;;;;;;;;;;5004504;28;20241;-63
2022/03/17 10:23:43;;;;;;;133.88;119.75;;;;;;;;;;5002139;28;20685;-60
2022/03/17 10:26:10;;;;;;;136.73;114.28;;;;;;;;;;4999643;28;20204;-61
2022/03/17 10:28:37;;;;;;;135.00;120.65;;;;;;;;;;5002274;28;20204;-61
2022/03/17 10:31:08;;;;;;;156.75;119.45;;;;;;;;;;5003451;28;20179;-64
2022/03/17 10:33:34;;;;;;;143.35;123.45;;;;;;;;;;5000909;28;20205;-62
2022/03/17 10:36:19;;;;;;;152.68;126.47;;;;;;;;;;5005147;28;20233;-63
2022/03/17 10:38:45;;;;;;;147.13;123.60;;;;;;;;;;5000623;28;20201;-64
2022/03/17 10:41:12;;;;;;;178.98;131.95;;;;;;;;;;5000303;28;20177;-63
2022/03/17 10:43:39;;;;;;;165.13;127.18;;;;;;;;;;5001895;28;20273;-62
2022/03/17 10:46:08;;;;;;;159.30;123.78;;;;;;;;;;5004163;28;21422;-60
2022/03/17 10:48:34;;;;;;;172.82;132.10;;;;;;;;;;5002344;28;20201;-63
2022/03/17 10:51:00;;;;;;;170.30;129.73;;;;;;;;;;5000979;28;20180;-62
2022/03/17 10:53:30;;;;;;;156.23;127.83;;;;;;;;;;5001845;28;20216;-63
2022/03/17 10:56:10;;;;;;;171.52;125.93;;;;;;;;;;5000888;28;20491;-63
2022/03/17 10:58:43;;;;;;;170.48;125.70;;;;;;;;;;5000783;28;20699;-63
2022/03/17 11:01:09;;;;;;;163.05;126.13;;;;;;;;;;4998997;28;20650;-62
2022/03/17 11:03:35;;;;;;;164.80;127.67;;;;;;;;;;5008521;28;20284;-62
2022/03/17 11:06:01;;;;;;;167.20;130.35;;;;;;;;;;5004575;28;20431;-63
2022/03/17 11:08:28;;;;;;;161.13;127.75;;;;;;;;;;5001973;28;20194;-63
2022/03/17 11:10:54;;;;;;;165.93;129.85;;;;;;;;;;4982560;28;20174;-63
2022/03/17 11:13:20;;;;;;;173.33;130.13;;;;;;;;;;5000514;28;20241;-62
2022/03/17 11:15:54;;;;;;;169.40;132.30;;;;;;;;;;5000540;28;20409;-63
2022/03/17 11:18:21;;;;;;;169.32;130.57;;;;;;;;;;4999248;28;20187;-63
2022/03/17 11:20:47;;;;;;;154.02;132.18;;;;;;;;;;5003513;28;20182;-62
2022/03/17 11:23:16;;;;;;;162.10;129.93;;;;;;;;;;5007060;28;20263;-62
2022/03/17 11:25:45;;;;;;;164.23;127.63;;;;;;;;;;5001200;28;20178;-62
2022/03/17 11:28:11;;;;;;;165.85;121.68;;;;;;;;;;5001443;28;20221;-62
2022/03/17 11:30:40;;;;;;;153.97;123.93;;;;;;;;;;5000683;28;20177;-61
2022/03/17 11:33:20;;;;;;;150.40;122.72;;;;;;;;;;5004323;28;20408;-61
2022/03/17 11:35:52;;;;;;;150.80;122.70;;;;;;;;;;5004584;28;20260;-61
2022/03/17 11:38:23;;;;;;;155.38;119.97;;;;;;;;;;5010210;28;20182;-62
2022/03/17 11:41:06;;;;;;;153.60;120.72;;;;;;;;;;4996395;28;20193;-63
2022/03/17 11:43:47;;;;;;;159.63;116.75;;;;;;;;;;5006062;28;20205;-62
2022/03/17 11:46:17;;;;;;;158.00;112.68;;;;;;;;;;5004090;28;20182;-63
2022/03/17 11:48:44;;;;;;;157.35;118.70;;;;;;;;;;5002596;28;20298;-63
2022/03/17 11:51:12;;;;;;;131.90;110.35;;;;;;;;;;5004612;28;20178;-62
2022/03/17 11:53:50;;;;;;;164.82;114.60;;;;;;;;;;5002530;28;20197;-62
2022/03/17 11:56:31;;;;;;;167.05;113.75;;;;;;;;;;5002416;28;20166;-63
2022/03/17 11:58:58;;;;;;;140.25;111.93;;;;;;;;;;5002614;28;20190;-62
2022/03/17 12:01:25;;;;;;;155.70;113.22;;;;;;;;;;5003658;28;20178;-62
2022/03/17 12:03:55;;;;;;;158.48;111.55;;;;;;;;;;5003993;28;20973;-62
2022/03/17 12:06:21;;;;;;;162.40;117.75;;;;;;;;;;4985112;28;20270;-62
2022/03/17 12:08:47;;;;;;;157.57;110.27;;;;;;;;;;5011118;28;20292;-62
2022/03/17 12:11:14;;;;;;;145.37;108.70;;;;;;;;;;5013902;28;20423;-62
2022/03/17 12:13:41;;;;;;;163.00;109.57;;;;;;;;;;5010415;28;20483;-62
2022/03/17 12:16:07;;;;;;;161.48;110.72;;;;;;;;;;5003204;28;20709;-62
2022/03/17 12:18:52;;;;;;;173.30;111.20;;;;;;;;;;5004056;28;20205;-62
2022/03/17 12:21:18;;;;;;;168.88;108.80;;;;;;;;;;5003830;28;20181;-62
2022/03/17 12:23:45;;;;;;;166.67;108.57;;;;;;;;;;5001936;28;20205;-62
2022/03/17 12:26:12;;;;;;;158.60;109.20;;;;;;;;;;5002725;28;20858;-62
2022/03/17 12:28:45;;;;;;;156.88;108.28;;;;;;;;;;5004014;28;20229;-62
2022/03/17 12:31:11;;;;;;;147.75;106.95;;;;;;;;;;5006316;28;20185;-62
2022/03/17 12:33:40;;;;;;;150.70;104.97;;;;;;;;;;5013753;28;20569;-61
2022/03/17 12:36:06;;;;;;;116.03;103.68;;;;;;;;;;5012856;28;20197;-62
2022/03/17 12:38:34;;;;;;;122.97;101.60;;;;;;;;;;4990305;28;20802;-62
2022/03/17 12:41:00;;;;;;;123.28;99.45;;;;;;;;;;5007182;28;20891;-63
2022/03/17 12:43:27;;;;;;;160.82;113.72;;;;;;;;;;5007473;28;20200;-62
2022/03/17 12:45:57;;;;;;;166.80;115.55;;;;;;;;;;5010307;28;20192;-62
2022/03/17 12:48:25;;;;;;;169.48;118.35;;;;;;;;;;5011088;28;20229;-63
2022/03/17 12:50:51;;;;;;;143.23;117.18;;;;;;;;;;4996012;28;20704;-62
2022/03/17 12:53:17;;;;;;;157.68;120.70;;;;;;;;;;5011581;28;20716;-62
2022/03/17 12:55:43;;;;;;;176.23;119.20;;;;;;;;;;5007576;28;20177;-62
2022/03/17 12:58:16;;;;;;;146.85;122.28;;;;;;;;;;5009353;28;20657;-62
2022/03/17 13:00:42;;;;;;;130.73;116.53;;;;;;;;;;5005759;28;20177;-63
2022/03/17 13:03:15;;;;;;;134.38;115.82;;;;;;;;;;5012641;28;20181;-63
2022/03/17 13:08:36;;;;;;;161.00;120.18;;;;;;;;;;5013234;28;20224;-62
2022/03/17 13:16:33;;;;;;;160.77;118.03;;;;;;;;;;5012547;28;20196;-62
2022/03/17 13:18:59;;;;;;;135.35;111.88;;;;;;;;;;5006442;28;20237;-63
2022/03/17 13:21:26;;;;;;;161.33;119.83;;;;;;;;;;5013214;28;20256;-61
2022/03/17 13:23:52;;;;;;;157.23;121.88;;;;;;;;;;5013054;28;20923;-61
2022/03/17 13:26:30;;;;;;;141.85;116.63;;;;;;;;;;4995518;28;20534;-61
2022/03/17 13:29:03;;;;;;;140.55;116.30;;;;;;;;;;5013028;28;20684;-62
2022/03/17 13:31:36;;;;;;;132.48;114.15;;;;;;;;;;5012464;28;20178;-63
2022/03/17 13:34:02;;;;;;;141.70;111.95;;;;;;;;;;5012624;28;20506;-61
2022/03/17 13:36:46;;;;;;;114.40;103.60;;;;;;;;;;5012799;28;20201;-63
2022/03/17 13:39:12;;;;;;;112.90;103.72;;;;;;;;;;5011184;28;20415;-61
2022/03/17 13:41:38;;;;;;;91.07;84.67;;;;;;;;;;4996176;28;20189;-61
2022/03/17 13:44:04;;;;;;;95.47;88.83;;;;;;;;;;5012328;28;20472;-62
2022/03/17 13:46:39;;;;;;;77.57;72.53;;;;;;;;;;5012287;28;20908;-61
2022/03/17 13:49:15;;;;;;;71.82;67.32;;;;;;;;;;5011740;28;20233;-62
2022/03/17 13:51:41;;;;;;;72.15;67.45;;;;;;;;;;5010563;28;20526;-61
2022/03/17 13:54:07;;;;;;;75.83;70.63;;;;;;;;;;5011695;28;20205;-63
2022/03/17 13:56:36;;;;;;;37.03;35.33;;;;;;;;;;5012347;28;20423;-60
2022/03/17 13:59:02;;;;;;;45.72;43.33;;;;;;;;;;5011404;28;20177;-62
2022/03/17 14:01:28;;;;;;;77.13;71.83;;;;;;;;;;5009652;28;20182;-62
2022/03/17 14:04:01;;;;;;;40.67;38.67;;;;;;;;;;5009629;28;20647;-62
2022/03/17 14:06:31;;;;;;;52.70;49.70;;;;;;;;;;5009442;28;20428;-63
2022/03/17 14:08:58;;;;;;;64.88;60.78;;;;;;;;;;5012950;28;20213;-62
2022/03/17 14:11:25;;;;;;;120.43;109.07;;;;;;;;;;4994630;28;20673;-61
2022/03/17 14:13:52;;;;;;;115.18;104.68;;;;;;;;;;4988418;28;20205;-62
2022/03/17 14:16:19;;;;;;;117.38;106.80;;;;;;;;;;5005084;28;20260;-62
2022/03/17 14:18:45;;;;;;;114.13;103.32;;;;;;;;;;5002641;28;20186;-63
2022/03/17 14:21:12;;;;;;;118.07;106.05;;;;;;;;;;4984692;28;20268;-62
2022/03/17 14:26:24;;;;;;;63.83;59.72;;;;;;;;;;5004592;28;20663;-60
2022/03/17 14:28:51;;;;;;;13.35;12.95;;;;;;;;;;5011821;28;20205;-60
2022/03/17 14:31:20;;;;;;;21.20;20.40;;;;;;;;;;4993953;28;20292;-62